sensor_id;sensor_type;location;lat;lon;timestamp;P1;durP1;ratioP1;P2;durP2;ratioP2
69769;SDS011;57282;52.514;13.458;2022-08-19T00:00:52;11.63;;;9.18;;
69769;SDS011;57282;52.514;13.458;2022-08-19T00:03:19;11.33;;;7.83;;
69769;SDS011;57282;52.514;13.458;2022-08-19T00:05:45;11.50;;;8.55;;
69769;SDS011;57282;52.514;13.458;2022-08-19T00:08:12;12.35;;;9.15;;
69769;SDS011;57282;52.514;13.458;2022-08-19T00:10:39;10.95;;;8.25;;
69769;SDS011;57282;52.514;13.458;2022-08-19T00:13:14;12.15;;;8.85;;
69769;SDS011;57282;52.514;13.458;2022-08-19T00:15:44;12.03;;;8.23;;
69769;SDS011;57282;52.514;13.458;2022-08-19T00:18:13;12.13;;;9.05;;
69769;SDS011;57282;52.514;13.458;2022-08-19T00:20:40;10.52;;;8.63;;
69769;SDS011;57282;52.514;13.458;2022-08-19T00:23:10;12.80;;;8.43;;
69769;SDS011;57282;52.514;13.458;2022-08-19T00:25:37;10.40;;;8.32;;
69769;SDS011;57282;52.514;13.458;2022-08-19T00:28:04;12.90;;;8.60;;
69769;SDS011;57282;52.514;13.458;2022-08-19T00:30:31;13.13;;;9.00;;
69769;SDS011;57282;52.514;13.458;2022-08-19T00:32:59;10.95;;;9.48;;
69769;SDS011;57282;52.514;13.458;2022-08-19T00:35:28;13.88;;;9.57;;
69769;SDS011;57282;52.514;13.458;2022-08-19T00:37:59;16.33;;;10.15;;
69769;SDS011;57282;52.514;13.458;2022-08-19T00:40:26;12.03;;;9.47;;
69769;SDS011;57282;52.514;13.458;2022-08-19T00:42:55;13.07;;;9.48;;
69769;SDS011;57282;52.514;13.458;2022-08-19T00:45:38;13.50;;;8.73;;
69769;SDS011;57282;52.514;13.458;2022-08-19T00:48:10;16.20;;;10.05;;
69769;SDS011;57282;52.514;13.458;2022-08-19T00:50:38;18.08;;;10.40;;
69769;SDS011;57282;52.514;13.458;2022-08-19T00:53:07;18.90;;;10.10;;
69769;SDS011;57282;52.514;13.458;2022-08-19T00:55:36;18.77;;;11.27;;
69769;SDS011;57282;52.514;13.458;2022-08-19T00:58:09;18.92;;;11.07;;
69769;SDS011;57282;52.514;13.458;2022-08-19T01:00:46;14.65;;;9.25;;
69769;SDS011;57282;52.514;13.458;2022-08-19T01:03:16;15.20;;;11.02;;
69769;SDS011;57282;52.514;13.458;2022-08-19T01:05:46;14.63;;;10.37;;
69769;SDS011;57282;52.514;13.458;2022-08-19T01:08:16;14.18;;;10.02;;
69769;SDS011;57282;52.514;13.458;2022-08-19T01:10:45;11.90;;;9.60;;
69769;SDS011;57282;52.514;13.458;2022-08-19T01:13:16;13.73;;;9.52;;
69769;SDS011;57282;52.514;13.458;2022-08-19T01:15:49;14.15;;;9.57;;
69769;SDS011;57282;52.514;13.458;2022-08-19T01:18:22;13.63;;;10.10;;
69769;SDS011;57282;52.514;13.458;2022-08-19T01:20:53;14.95;;;10.85;;
69769;SDS011;57282;52.514;13.458;2022-08-19T01:23:25;13.85;;;10.30;;
69769;SDS011;57282;52.514;13.458;2022-08-19T01:26:07;15.20;;;9.82;;
69769;SDS011;57282;52.514;13.458;2022-08-19T01:28:36;14.43;;;9.77;;
69769;SDS011;57282;52.514;13.458;2022-08-19T01:31:03;13.57;;;10.33;;
69769;SDS011;57282;52.514;13.458;2022-08-19T01:33:31;16.13;;;10.57;;
69769;SDS011;57282;52.514;13.458;2022-08-19T01:36:03;17.63;;;10.73;;
69769;SDS011;57282;52.514;13.458;2022-08-19T01:38:35;17.17;;;10.82;;
69769;SDS011;57282;52.514;13.458;2022-08-19T01:41:06;17.05;;;11.35;;
69769;SDS011;57282;52.514;13.458;2022-08-19T01:43:33;17.97;;;12.00;;
69769;SDS011;57282;52.514;13.458;2022-08-19T01:46:00;22.90;;;13.18;;
69769;SDS011;57282;52.514;13.458;2022-08-19T01:48:32;21.13;;;12.82;;
69769;SDS011;57282;52.514;13.458;2022-08-19T01:51:01;14.52;;;9.65;;
69769;SDS011;57282;52.514;13.458;2022-08-19T01:53:29;14.40;;;9.63;;
69769;SDS011;57282;52.514;13.458;2022-08-19T01:55:57;16.03;;;10.57;;
69769;SDS011;57282;52.514;13.458;2022-08-19T01:58:25;21.63;;;10.52;;
69769;SDS011;57282;52.514;13.458;2022-08-19T02:00:58;15.02;;;9.75;;
69769;SDS011;57282;52.514;13.458;2022-08-19T02:03:25;20.45;;;10.65;;
69769;SDS011;57282;52.514;13.458;2022-08-19T02:05:55;17.92;;;11.05;;
69769;SDS011;57282;52.514;13.458;2022-08-19T02:08:25;16.57;;;10.40;;
69769;SDS011;57282;52.514;13.458;2022-08-19T02:10:52;16.10;;;9.65;;
69769;SDS011;57282;52.514;13.458;2022-08-19T02:13:21;19.25;;;10.38;;
69769;SDS011;57282;52.514;13.458;2022-08-19T02:15:49;17.23;;;10.30;;
69769;SDS011;57282;52.514;13.458;2022-08-19T02:18:16;12.82;;;9.95;;
69769;SDS011;57282;52.514;13.458;2022-08-19T02:20:43;14.50;;;10.17;;
69769;SDS011;57282;52.514;13.458;2022-08-19T02:23:12;13.90;;;10.10;;
69769;SDS011;57282;52.514;13.458;2022-08-19T02:25:41;13.50;;;10.13;;
69769;SDS011;57282;52.514;13.458;2022-08-19T02:28:09;18.10;;;9.88;;
69769;SDS011;57282;52.514;13.458;2022-08-19T02:30:38;15.15;;;9.43;;
69769;SDS011;57282;52.514;13.458;2022-08-19T02:33:07;11.17;;;8.60;;
69769;SDS011;57282;52.514;13.458;2022-08-19T02:35:34;13.20;;;9.18;;
69769;SDS011;57282;52.514;13.458;2022-08-19T02:38:01;11.85;;;8.73;;
69769;SDS011;57282;52.514;13.458;2022-08-19T02:40:48;12.45;;;9.40;;
69769;SDS011;57282;52.514;13.458;2022-08-19T02:43:16;14.18;;;9.98;;
69769;SDS011;57282;52.514;13.458;2022-08-19T02:45:46;13.17;;;9.17;;
69769;SDS011;57282;52.514;13.458;2022-08-19T02:48:17;11.85;;;9.05;;
69769;SDS011;57282;52.514;13.458;2022-08-19T02:50:46;12.80;;;9.52;;
69769;SDS011;57282;52.514;13.458;2022-08-19T02:53:16;13.15;;;9.30;;
69769;SDS011;57282;52.514;13.458;2022-08-19T02:55:43;16.30;;;10.10;;
69769;SDS011;57282;52.514;13.458;2022-08-19T02:58:12;13.17;;;9.70;;
69769;SDS011;57282;52.514;13.458;2022-08-19T03:00:43;13.13;;;9.55;;
69769;SDS011;57282;52.514;13.458;2022-08-19T03:03:14;14.25;;;9.85;;
69769;SDS011;57282;52.514;13.458;2022-08-19T03:05:41;13.13;;;9.65;;
69769;SDS011;57282;52.514;13.458;2022-08-19T03:08:09;12.23;;;9.10;;
69769;SDS011;57282;52.514;13.458;2022-08-19T03:10:42;13.97;;;9.80;;
69769;SDS011;57282;52.514;13.458;2022-08-19T03:13:12;12.23;;;9.10;;
69769;SDS011;57282;52.514;13.458;2022-08-19T03:15:41;14.73;;;10.57;;
69769;SDS011;57282;52.514;13.458;2022-08-19T03:18:13;16.83;;;9.05;;
69769;SDS011;57282;52.514;13.458;2022-08-19T03:20:42;11.85;;;8.55;;
69769;SDS011;57282;52.514;13.458;2022-08-19T03:23:10;13.30;;;8.87;;
69769;SDS011;57282;52.514;13.458;2022-08-19T03:25:39;13.00;;;9.43;;
69769;SDS011;57282;52.514;13.458;2022-08-19T03:28:08;12.35;;;9.15;;
69769;SDS011;57282;52.514;13.458;2022-08-19T03:30:36;14.35;;;9.10;;
69769;SDS011;57282;52.514;13.458;2022-08-19T03:33:05;14.80;;;9.32;;
69769;SDS011;57282;52.514;13.458;2022-08-19T03:35:33;13.33;;;9.37;;
69769;SDS011;57282;52.514;13.458;2022-08-19T03:38:01;11.30;;;8.85;;
69769;SDS011;57282;52.514;13.458;2022-08-19T03:40:28;12.43;;;9.40;;
69769;SDS011;57282;52.514;13.458;2022-08-19T03:42:55;12.55;;;9.35;;
69769;SDS011;57282;52.514;13.458;2022-08-19T03:45:22;11.45;;;9.38;;
69769;SDS011;57282;52.514;13.458;2022-08-19T03:47:49;11.63;;;8.80;;
69769;SDS011;57282;52.514;13.458;2022-08-19T03:50:17;13.73;;;9.55;;
69769;SDS011;57282;52.514;13.458;2022-08-19T03:52:47;15.77;;;9.88;;
69769;SDS011;57282;52.514;13.458;2022-08-19T03:55:15;13.65;;;9.10;;
69769;SDS011;57282;52.514;13.458;2022-08-19T03:57:42;12.15;;;9.25;;
69769;SDS011;57282;52.514;13.458;2022-08-19T04:00:10;14.00;;;9.30;;
69769;SDS011;57282;52.514;13.458;2022-08-19T04:02:38;14.68;;;9.82;;
69769;SDS011;57282;52.514;13.458;2022-08-19T04:05:05;11.98;;;8.82;;
69769;SDS011;57282;52.514;13.458;2022-08-19T04:07:34;12.52;;;9.15;;
69769;SDS011;57282;52.514;13.458;2022-08-19T04:10:01;11.73;;;9.60;;
69769;SDS011;57282;52.514;13.458;2022-08-19T04:12:29;13.00;;;9.67;;
69769;SDS011;57282;52.514;13.458;2022-08-19T04:14:57;13.05;;;9.15;;
69769;SDS011;57282;52.514;13.458;2022-08-19T04:17:24;14.98;;;9.90;;
69769;SDS011;57282;52.514;13.458;2022-08-19T04:19:50;14.50;;;10.05;;
69769;SDS011;57282;52.514;13.458;2022-08-19T04:22:17;14.88;;;10.25;;
69769;SDS011;57282;52.514;13.458;2022-08-19T04:24:45;13.40;;;9.90;;
69769;SDS011;57282;52.514;13.458;2022-08-19T04:27:12;14.45;;;9.88;;
69769;SDS011;57282;52.514;13.458;2022-08-19T04:29:39;14.88;;;11.02;;
69769;SDS011;57282;52.514;13.458;2022-08-19T04:32:06;14.52;;;10.10;;
69769;SDS011;57282;52.514;13.458;2022-08-19T04:34:32;15.73;;;11.00;;
69769;SDS011;57282;52.514;13.458;2022-08-19T04:36:59;13.70;;;10.73;;
69769;SDS011;57282;52.514;13.458;2022-08-19T04:39:30;16.35;;;9.80;;
69769;SDS011;57282;52.514;13.458;2022-08-19T04:42:16;14.75;;;10.63;;
69769;SDS011;57282;52.514;13.458;2022-08-19T04:45:02;14.07;;;9.52;;
69769;SDS011;57282;52.514;13.458;2022-08-19T04:47:33;14.73;;;10.15;;
69769;SDS011;57282;52.514;13.458;2022-08-19T04:50:00;15.07;;;10.23;;
69769;SDS011;57282;52.514;13.458;2022-08-19T04:52:27;15.75;;;10.30;;
69769;SDS011;57282;52.514;13.458;2022-08-19T04:54:53;14.40;;;10.85;;
69769;SDS011;57282;52.514;13.458;2022-08-19T04:57:22;15.55;;;11.20;;
69769;SDS011;57282;52.514;13.458;2022-08-19T04:59:49;14.80;;;10.20;;
69769;SDS011;57282;52.514;13.458;2022-08-19T05:02:21;18.20;;;10.30;;
69769;SDS011;57282;52.514;13.458;2022-08-19T05:04:49;14.45;;;10.88;;
69769;SDS011;57282;52.514;13.458;2022-08-19T05:07:16;14.02;;;10.23;;
69769;SDS011;57282;52.514;13.458;2022-08-19T05:09:43;13.02;;;10.13;;
69769;SDS011;57282;52.514;13.458;2022-08-19T05:12:10;16.65;;;10.52;;
69769;SDS011;57282;52.514;13.458;2022-08-19T05:14:38;15.90;;;10.43;;
69769;SDS011;57282;52.514;13.458;2022-08-19T05:17:05;15.18;;;10.93;;
69769;SDS011;57282;52.514;13.458;2022-08-19T05:19:31;15.07;;;10.82;;
69769;SDS011;57282;52.514;13.458;2022-08-19T05:22:15;15.68;;;10.45;;
69769;SDS011;57282;52.514;13.458;2022-08-19T05:25:00;15.85;;;11.55;;
69769;SDS011;57282;52.514;13.458;2022-08-19T05:27:33;14.50;;;11.23;;
69769;SDS011;57282;52.514;13.458;2022-08-19T05:30:02;13.95;;;10.02;;
69769;SDS011;57282;52.514;13.458;2022-08-19T05:32:30;14.07;;;10.90;;
69769;SDS011;57282;52.514;13.458;2022-08-19T05:34:57;14.63;;;9.98;;
69769;SDS011;57282;52.514;13.458;2022-08-19T05:37:24;14.48;;;11.00;;
69769;SDS011;57282;52.514;13.458;2022-08-19T05:39:51;12.97;;;10.17;;
69769;SDS011;57282;52.514;13.458;2022-08-19T05:42:19;15.73;;;10.57;;
69769;SDS011;57282;52.514;13.458;2022-08-19T05:44:47;15.82;;;10.77;;
69769;SDS011;57282;52.514;13.458;2022-08-19T05:47:16;14.10;;;10.38;;
69769;SDS011;57282;52.514;13.458;2022-08-19T05:49:45;15.80;;;10.90;;
69769;SDS011;57282;52.514;13.458;2022-08-19T05:52:13;16.13;;;10.63;;
69769;SDS011;57282;52.514;13.458;2022-08-19T05:54:41;14.95;;;11.20;;
69769;SDS011;57282;52.514;13.458;2022-08-19T05:57:10;18.08;;;12.80;;
69769;SDS011;57282;52.514;13.458;2022-08-19T05:59:37;14.95;;;11.38;;
69769;SDS011;57282;52.514;13.458;2022-08-19T06:02:04;16.52;;;10.80;;
69769;SDS011;57282;52.514;13.458;2022-08-19T06:04:33;14.50;;;10.70;;
69769;SDS011;57282;52.514;13.458;2022-08-19T06:07:00;16.42;;;10.57;;
69769;SDS011;57282;52.514;13.458;2022-08-19T06:09:27;16.98;;;11.40;;
69769;SDS011;57282;52.514;13.458;2022-08-19T06:11:54;16.48;;;11.02;;
69769;SDS011;57282;52.514;13.458;2022-08-19T06:14:25;13.10;;;10.25;;
69769;SDS011;57282;52.514;13.458;2022-08-19T06:16:55;14.53;;;10.90;;
69769;SDS011;57282;52.514;13.458;2022-08-19T06:19:25;14.85;;;10.50;;
69769;SDS011;57282;52.514;13.458;2022-08-19T06:21:56;14.43;;;11.10;;
69769;SDS011;57282;52.514;13.458;2022-08-19T06:24:25;19.48;;;11.40;;
69769;SDS011;57282;52.514;13.458;2022-08-19T06:26:55;15.40;;;11.70;;
69769;SDS011;57282;52.514;13.458;2022-08-19T06:29:25;18.20;;;12.60;;
69769;SDS011;57282;52.514;13.458;2022-08-19T06:31:55;18.20;;;12.40;;
69769;SDS011;57282;52.514;13.458;2022-08-19T06:34:25;15.77;;;12.18;;
69769;SDS011;57282;52.514;13.458;2022-08-19T06:36:56;15.23;;;11.85;;
69769;SDS011;57282;52.514;13.458;2022-08-19T06:39:27;16.83;;;12.13;;
69769;SDS011;57282;52.514;13.458;2022-08-19T06:42:04;15.97;;;12.87;;
69769;SDS011;57282;52.514;13.458;2022-08-19T06:44:35;15.20;;;12.23;;
69769;SDS011;57282;52.514;13.458;2022-08-19T06:47:04;14.90;;;12.25;;
69769;SDS011;57282;52.514;13.458;2022-08-19T06:49:34;19.52;;;12.10;;
69769;SDS011;57282;52.514;13.458;2022-08-19T06:52:04;20.48;;;12.15;;
69769;SDS011;57282;52.514;13.458;2022-08-19T06:54:31;14.57;;;12.13;;
69769;SDS011;57282;52.514;13.458;2022-08-19T06:56:59;16.25;;;12.18;;
69769;SDS011;57282;52.514;13.458;2022-08-19T06:59:27;17.38;;;12.30;;
69769;SDS011;57282;52.514;13.458;2022-08-19T07:01:58;15.15;;;12.05;;
69769;SDS011;57282;52.514;13.458;2022-08-19T07:04:29;17.65;;;12.63;;
69769;SDS011;57282;52.514;13.458;2022-08-19T07:06:59;17.17;;;12.23;;
69769;SDS011;57282;52.514;13.458;2022-08-19T07:09:32;15.80;;;12.02;;
69769;SDS011;57282;52.514;13.458;2022-08-19T07:12:02;19.52;;;14.73;;
69769;SDS011;57282;52.514;13.458;2022-08-19T07:14:31;17.17;;;13.98;;
69769;SDS011;57282;52.514;13.458;2022-08-19T07:17:02;18.00;;;12.98;;
69769;SDS011;57282;52.514;13.458;2022-08-19T07:19:31;17.07;;;12.23;;
69769;SDS011;57282;52.514;13.458;2022-08-19T07:22:00;17.15;;;13.15;;
69769;SDS011;57282;52.514;13.458;2022-08-19T07:24:28;19.63;;;14.13;;
69769;SDS011;57282;52.514;13.458;2022-08-19T07:26:58;18.13;;;13.73;;
69769;SDS011;57282;52.514;13.458;2022-08-19T07:29:27;22.35;;;14.93;;
69769;SDS011;57282;52.514;13.458;2022-08-19T07:31:57;20.70;;;13.37;;
69769;SDS011;57282;52.514;13.458;2022-08-19T07:34:26;18.25;;;12.93;;
69769;SDS011;57282;52.514;13.458;2022-08-19T07:36:54;19.60;;;13.95;;
69769;SDS011;57282;52.514;13.458;2022-08-19T07:39:23;16.10;;;12.52;;
69769;SDS011;57282;52.514;13.458;2022-08-19T07:41:54;18.25;;;14.15;;
69769;SDS011;57282;52.514;13.458;2022-08-19T07:44:24;20.43;;;13.13;;
69769;SDS011;57282;52.514;13.458;2022-08-19T07:46:52;18.33;;;13.85;;
69769;SDS011;57282;52.514;13.458;2022-08-19T07:49:21;18.70;;;13.88;;
69769;SDS011;57282;52.514;13.458;2022-08-19T07:51:50;21.05;;;13.85;;
69769;SDS011;57282;52.514;13.458;2022-08-19T07:54:21;20.52;;;13.68;;
69769;SDS011;57282;52.514;13.458;2022-08-19T07:56:50;18.67;;;13.47;;
69769;SDS011;57282;52.514;13.458;2022-08-19T07:59:17;19.88;;;12.88;;
69769;SDS011;57282;52.514;13.458;2022-08-19T08:01:46;18.45;;;14.27;;
69769;SDS011;57282;52.514;13.458;2022-08-19T08:04:15;18.75;;;14.52;;
69769;SDS011;57282;52.514;13.458;2022-08-19T08:07:00;22.05;;;14.32;;
69769;SDS011;57282;52.514;13.458;2022-08-19T08:09:45;18.77;;;13.67;;
69769;SDS011;57282;52.514;13.458;2022-08-19T08:12:13;18.10;;;14.63;;
69769;SDS011;57282;52.514;13.458;2022-08-19T08:14:44;19.75;;;15.32;;
69769;SDS011;57282;52.514;13.458;2022-08-19T08:17:16;18.90;;;14.27;;
69769;SDS011;57282;52.514;13.458;2022-08-19T08:19:45;19.33;;;15.20;;
69769;SDS011;57282;52.514;13.458;2022-08-19T08:22:15;19.87;;;15.03;;
69769;SDS011;57282;52.514;13.458;2022-08-19T08:25:00;19.98;;;14.23;;
69769;SDS011;57282;52.514;13.458;2022-08-19T08:27:29;19.30;;;15.63;;
69769;SDS011;57282;52.514;13.458;2022-08-19T08:29:55;20.38;;;14.25;;
69769;SDS011;57282;52.514;13.458;2022-08-19T08:32:24;18.73;;;14.85;;
69769;SDS011;57282;52.514;13.458;2022-08-19T08:34:51;18.60;;;14.27;;
69769;SDS011;57282;52.514;13.458;2022-08-19T08:37:18;20.67;;;14.43;;
69769;SDS011;57282;52.514;13.458;2022-08-19T08:39:47;19.80;;;14.73;;
69769;SDS011;57282;52.514;13.458;2022-08-19T08:42:14;19.98;;;14.38;;
69769;SDS011;57282;52.514;13.458;2022-08-19T08:44:52;19.45;;;15.32;;
69769;SDS011;57282;52.514;13.458;2022-08-19T08:47:26;15.77;;;11.97;;
69769;SDS011;57282;52.514;13.458;2022-08-19T08:50:03;22.23;;;14.27;;
69769;SDS011;57282;52.514;13.458;2022-08-19T08:52:39;20.85;;;16.52;;
69769;SDS011;57282;52.514;13.458;2022-08-19T08:55:13;22.67;;;14.82;;
69769;SDS011;57282;52.514;13.458;2022-08-19T08:57:50;19.02;;;14.80;;
69769;SDS011;57282;52.514;13.458;2022-08-19T09:00:24;19.53;;;14.63;;
69769;SDS011;57282;52.514;13.458;2022-08-19T09:02:56;19.02;;;14.90;;
69769;SDS011;57282;52.514;13.458;2022-08-19T09:05:25;20.90;;;16.30;;
69769;SDS011;57282;52.514;13.458;2022-08-19T09:08:08;20.45;;;15.05;;
69769;SDS011;57282;52.514;13.458;2022-08-19T09:10:44;17.77;;;13.13;;
69769;SDS011;57282;52.514;13.458;2022-08-19T09:13:18;10.27;;;8.57;;
69769;SDS011;57282;52.514;13.458;2022-08-19T09:15:58;15.23;;;11.60;;
69769;SDS011;57282;52.514;13.458;2022-08-19T09:18:41;16.90;;;13.40;;
69769;SDS011;57282;52.514;13.458;2022-08-19T09:21:11;16.75;;;11.70;;
69769;SDS011;57282;52.514;13.458;2022-08-19T09:23:38;17.27;;;13.07;;
69769;SDS011;57282;52.514;13.458;2022-08-19T09:26:06;18.40;;;12.93;;
69769;SDS011;57282;52.514;13.458;2022-08-19T09:28:34;14.80;;;12.10;;
69769;SDS011;57282;52.514;13.458;2022-08-19T09:31:02;18.10;;;14.07;;
69769;SDS011;57282;52.514;13.458;2022-08-19T09:33:29;16.50;;;13.02;;
69769;SDS011;57282;52.514;13.458;2022-08-19T09:36:05;15.55;;;11.48;;
69769;SDS011;57282;52.514;13.458;2022-08-19T09:38:36;18.47;;;13.50;;
69769;SDS011;57282;52.514;13.458;2022-08-19T09:41:07;15.38;;;12.65;;
69769;SDS011;57282;52.514;13.458;2022-08-19T09:43:39;19.52;;;13.20;;
69769;SDS011;57282;52.514;13.458;2022-08-19T09:46:08;15.13;;;12.65;;
69769;SDS011;57282;52.514;13.458;2022-08-19T09:48:36;15.93;;;12.45;;
69769;SDS011;57282;52.514;13.458;2022-08-19T09:51:05;18.80;;;13.33;;
69769;SDS011;57282;52.514;13.458;2022-08-19T09:53:36;17.13;;;12.98;;
69769;SDS011;57282;52.514;13.458;2022-08-19T09:56:04;15.38;;;12.45;;
69769;SDS011;57282;52.514;13.458;2022-08-19T09:58:32;18.67;;;12.88;;
69769;SDS011;57282;52.514;13.458;2022-08-19T10:01:00;15.75;;;11.95;;
69769;SDS011;57282;52.514;13.458;2022-08-19T10:03:29;15.30;;;12.63;;
69769;SDS011;57282;52.514;13.458;2022-08-19T10:05:57;16.50;;;11.57;;
69769;SDS011;57282;52.514;13.458;2022-08-19T10:08:30;17.05;;;12.65;;
69769;SDS011;57282;52.514;13.458;2022-08-19T10:11:00;16.25;;;13.70;;
69769;SDS011;57282;52.514;13.458;2022-08-19T10:13:31;20.30;;;13.65;;
69769;SDS011;57282;52.514;13.458;2022-08-19T10:16:02;16.13;;;12.50;;
69769;SDS011;57282;52.514;13.458;2022-08-19T10:18:33;15.38;;;12.63;;
69769;SDS011;57282;52.514;13.458;2022-08-19T10:21:04;16.65;;;13.45;;
69769;SDS011;57282;52.514;13.458;2022-08-19T10:23:35;16.83;;;13.30;;
69769;SDS011;57282;52.514;13.458;2022-08-19T10:26:04;17.45;;;13.30;;
69769;SDS011;57282;52.514;13.458;2022-08-19T10:28:33;19.67;;;14.53;;
69769;SDS011;57282;52.514;13.458;2022-08-19T10:31:05;16.77;;;13.35;;
69769;SDS011;57282;52.514;13.458;2022-08-19T10:33:34;18.77;;;13.77;;
69769;SDS011;57282;52.514;13.458;2022-08-19T10:36:03;19.40;;;13.48;;
69769;SDS011;57282;52.514;13.458;2022-08-19T10:38:36;18.90;;;13.38;;
69769;SDS011;57282;52.514;13.458;2022-08-19T10:41:07;17.50;;;13.73;;
69769;SDS011;57282;52.514;13.458;2022-08-19T10:43:42;15.93;;;12.75;;
69769;SDS011;57282;52.514;13.458;2022-08-19T10:46:11;16.80;;;12.90;;
69769;SDS011;57282;52.514;13.458;2022-08-19T10:48:41;16.17;;;12.68;;
69769;SDS011;57282;52.514;13.458;2022-08-19T10:51:09;15.68;;;11.85;;
69769;SDS011;57282;52.514;13.458;2022-08-19T10:53:55;15.47;;;12.43;;
69769;SDS011;57282;52.514;13.458;2022-08-19T10:56:23;15.70;;;12.13;;
69769;SDS011;57282;52.514;13.458;2022-08-19T10:59:07;19.45;;;12.82;;
69769;SDS011;57282;52.514;13.458;2022-08-19T11:01:36;15.77;;;12.60;;
69769;SDS011;57282;52.514;13.458;2022-08-19T11:04:03;18.38;;;12.60;;
69769;SDS011;57282;52.514;13.458;2022-08-19T11:06:33;16.47;;;12.03;;
69769;SDS011;57282;52.514;13.458;2022-08-19T11:09:02;16.38;;;12.40;;
69769;SDS011;57282;52.514;13.458;2022-08-19T11:11:29;15.88;;;12.70;;
69769;SDS011;57282;52.514;13.458;2022-08-19T11:13:57;18.33;;;13.38;;
69769;SDS011;57282;52.514;13.458;2022-08-19T11:16:25;17.50;;;12.70;;
69769;SDS011;57282;52.514;13.458;2022-08-19T11:18:57;17.30;;;11.90;;
69769;SDS011;57282;52.514;13.458;2022-08-19T11:21:26;16.17;;;12.63;;
69769;SDS011;57282;52.514;13.458;2022-08-19T11:23:58;16.63;;;11.95;;
69769;SDS011;57282;52.514;13.458;2022-08-19T11:26:28;15.02;;;11.93;;
69769;SDS011;57282;52.514;13.458;2022-08-19T11:28:57;17.00;;;12.38;;
69769;SDS011;57282;52.514;13.458;2022-08-19T11:31:26;14.13;;;11.17;;
69769;SDS011;57282;52.514;13.458;2022-08-19T11:33:56;15.00;;;11.40;;
69769;SDS011;57282;52.514;13.458;2022-08-19T11:36:24;19.10;;;11.85;;
69769;SDS011;57282;52.514;13.458;2022-08-19T11:38:52;13.60;;;10.88;;
69769;SDS011;57282;52.514;13.458;2022-08-19T11:41:21;14.45;;;11.70;;
69769;SDS011;57282;52.514;13.458;2022-08-19T11:43:51;16.00;;;11.40;;
69769;SDS011;57282;52.514;13.458;2022-08-19T11:46:20;18.05;;;12.65;;
69769;SDS011;57282;52.514;13.458;2022-08-19T11:48:49;18.58;;;12.43;;
69769;SDS011;57282;52.514;13.458;2022-08-19T11:51:17;18.45;;;11.25;;
69769;SDS011;57282;52.514;13.458;2022-08-19T11:53:49;14.88;;;11.65;;
69769;SDS011;57282;52.514;13.458;2022-08-19T11:56:17;15.73;;;10.87;;
69769;SDS011;57282;52.514;13.458;2022-08-19T11:58:45;14.48;;;11.35;;
69769;SDS011;57282;52.514;13.458;2022-08-19T12:01:15;13.90;;;11.02;;
69769;SDS011;57282;52.514;13.458;2022-08-19T12:03:45;15.30;;;10.20;;
69769;SDS011;57282;52.514;13.458;2022-08-19T12:06:19;14.20;;;11.23;;
69769;SDS011;57282;52.514;13.458;2022-08-19T12:08:50;14.07;;;9.63;;
69769;SDS011;57282;52.514;13.458;2022-08-19T12:11:18;11.43;;;9.27;;
69769;SDS011;57282;52.514;13.458;2022-08-19T12:13:45;13.50;;;10.02;;
69769;SDS011;57282;52.514;13.458;2022-08-19T12:16:15;11.85;;;8.88;;
69769;SDS011;57282;52.514;13.458;2022-08-19T12:18:46;13.55;;;10.52;;
69769;SDS011;57282;52.514;13.458;2022-08-19T12:21:13;12.63;;;9.00;;
69769;SDS011;57282;52.514;13.458;2022-08-19T12:23:41;14.48;;;9.73;;
69769;SDS011;57282;52.514;13.458;2022-08-19T12:26:10;12.02;;;10.15;;
69769;SDS011;57282;52.514;13.458;2022-08-19T12:28:37;13.40;;;9.63;;
69769;SDS011;57282;52.514;13.458;2022-08-19T12:31:04;13.18;;;9.75;;
69769;SDS011;57282;52.514;13.458;2022-08-19T12:33:33;14.33;;;9.17;;
69769;SDS011;57282;52.514;13.458;2022-08-19T12:36:00;15.00;;;9.18;;
69769;SDS011;57282;52.514;13.458;2022-08-19T12:38:30;12.10;;;9.07;;
69769;SDS011;57282;52.514;13.458;2022-08-19T12:40:59;12.75;;;8.30;;
69769;SDS011;57282;52.514;13.458;2022-08-19T12:43:28;10.55;;;8.23;;
69769;SDS011;57282;52.514;13.458;2022-08-19T12:45:55;11.60;;;7.90;;
69769;SDS011;57282;52.514;13.458;2022-08-19T12:48:22;9.32;;;7.80;;
69769;SDS011;57282;52.514;13.458;2022-08-19T12:50:50;11.27;;;8.93;;
69769;SDS011;57282;52.514;13.458;2022-08-19T12:53:17;12.98;;;8.80;;
69769;SDS011;57282;52.514;13.458;2022-08-19T12:55:44;11.43;;;8.70;;
69769;SDS011;57282;52.514;13.458;2022-08-19T12:58:11;10.93;;;8.23;;
69769;SDS011;57282;52.514;13.458;2022-08-19T13:00:38;11.77;;;8.35;;
69769;SDS011;57282;52.514;13.458;2022-08-19T13:03:06;11.52;;;9.00;;
69769;SDS011;57282;52.514;13.458;2022-08-19T13:05:33;12.98;;;8.98;;
69769;SDS011;57282;52.514;13.458;2022-08-19T13:08:01;11.90;;;9.80;;
69769;SDS011;57282;52.514;13.458;2022-08-19T13:10:29;11.00;;;9.50;;
69769;SDS011;57282;52.514;13.458;2022-08-19T13:12:59;14.45;;;9.18;;
69769;SDS011;57282;52.514;13.458;2022-08-19T13:15:27;12.85;;;9.77;;
69769;SDS011;57282;52.514;13.458;2022-08-19T13:17:57;14.82;;;9.35;;
69769;SDS011;57282;52.514;13.458;2022-08-19T13:20:24;11.80;;;9.48;;
69769;SDS011;57282;52.514;13.458;2022-08-19T13:22:52;12.83;;;8.63;;
69769;SDS011;57282;52.514;13.458;2022-08-19T13:25:23;11.90;;;9.40;;
69769;SDS011;57282;52.514;13.458;2022-08-19T13:27:51;13.35;;;9.98;;
69769;SDS011;57282;52.514;13.458;2022-08-19T13:30:20;14.45;;;10.15;;
69769;SDS011;57282;52.514;13.458;2022-08-19T13:33:06;13.80;;;10.10;;
69769;SDS011;57282;52.514;13.458;2022-08-19T13:35:37;13.47;;;10.00;;
69769;SDS011;57282;52.514;13.458;2022-08-19T13:38:05;14.20;;;9.93;;
69769;SDS011;57282;52.514;13.458;2022-08-19T13:40:33;13.65;;;9.90;;
69769;SDS011;57282;52.514;13.458;2022-08-19T13:43:02;12.13;;;9.98;;
69769;SDS011;57282;52.514;13.458;2022-08-19T13:45:31;13.82;;;10.10;;
69769;SDS011;57282;52.514;13.458;2022-08-19T13:48:00;16.93;;;11.27;;
69769;SDS011;57282;52.514;13.458;2022-08-19T13:50:33;13.02;;;10.60;;
69769;SDS011;57282;52.514;13.458;2022-08-19T13:53:05;15.05;;;11.02;;
69769;SDS011;57282;52.514;13.458;2022-08-19T13:55:33;14.15;;;10.10;;
69769;SDS011;57282;52.514;13.458;2022-08-19T13:58:01;11.98;;;9.50;;
69769;SDS011;57282;52.514;13.458;2022-08-19T14:00:28;13.67;;;10.20;;
69769;SDS011;57282;52.514;13.458;2022-08-19T14:02:58;15.40;;;10.23;;
69769;SDS011;57282;52.514;13.458;2022-08-19T14:05:26;14.68;;;10.65;;
69769;SDS011;57282;52.514;13.458;2022-08-19T14:07:54;15.68;;;10.07;;
69769;SDS011;57282;52.514;13.458;2022-08-19T14:10:21;16.42;;;11.68;;
69769;SDS011;57282;52.514;13.458;2022-08-19T14:12:53;17.43;;;12.53;;
69769;SDS011;57282;52.514;13.458;2022-08-19T14:15:23;14.60;;;11.90;;
69769;SDS011;57282;52.514;13.458;2022-08-19T14:17:51;15.90;;;10.95;;
69769;SDS011;57282;52.514;13.458;2022-08-19T14:20:18;14.60;;;10.43;;
69769;SDS011;57282;52.514;13.458;2022-08-19T14:22:45;13.52;;;10.35;;
69769;SDS011;57282;52.514;13.458;2022-08-19T14:25:15;14.93;;;9.77;;
69769;SDS011;57282;52.514;13.458;2022-08-19T14:27:45;12.93;;;9.80;;